createdAt,value
2019-01-10T00:00:48.502Z,69.98
2019-01-10T00:03:15.852Z,69.96
2019-01-10T00:05:44.391Z,70.22
2019-01-10T00:08:12.077Z,70.50
2019-01-10T00:10:39.524Z,70.26
2019-01-10T00:13:07.278Z,70.11
2019-01-10T00:15:35.015Z,70.14
2019-01-10T00:18:16.452Z,70.59
2019-01-10T00:20:46.975Z,70.53
2019-01-10T00:23:15.072Z,70.58
2019-01-10T00:25:42.464Z,70.06
2019-01-10T00:28:10.578Z,70.55
2019-01-10T00:30:38.372Z,70.39
2019-01-10T00:33:06.079Z,70.26
2019-01-10T00:35:34.028Z,70.59
2019-01-10T00:38:01.567Z,70.41
2019-01-10T00:40:29.208Z,70.11
2019-01-10T00:42:56.987Z,70.58
2019-01-10T00:45:24.798Z,70.74
2019-01-10T00:47:52.748Z,70.64
2019-01-10T00:50:22.800Z,70.30
2019-01-10T00:52:51.133Z,70.29
2019-01-10T00:55:19.243Z,70.81
2019-01-10T00:57:46.626Z,70.20
2019-01-10T01:00:21.060Z,70.57
2019-01-10T01:02:48.578Z,70.84
2019-01-10T01:05:16.858Z,70.59
2019-01-10T01:07:44.485Z,70.37
2019-01-10T01:10:16.876Z,70.46
2019-01-10T01:12:44.368Z,70.95
2019-01-10T01:15:13.613Z,70.56
2019-01-10T01:17:41.426Z,70.59
2019-01-10T01:20:10.224Z,70.41
2019-01-10T01:22:37.877Z,70.61
2019-01-10T01:25:06.910Z,70.59
2019-01-10T01:27:34.663Z,71.00
2019-01-10T01:30:02.943Z,70.76
2019-01-10T01:32:30.116Z,70.79
2019-01-10T01:34:57.734Z,70.73
2019-01-10T01:37:25.249Z,70.62
2019-01-10T01:39:54.021Z,70.77
2019-01-10T01:42:21.973Z,70.58
2019-01-10T01:44:49.325Z,70.93
2019-01-10T01:47:17.357Z,71.03
2019-01-10T01:49:44.787Z,70.75
2019-01-10T01:52:12.571Z,70.97
2019-01-10T01:54:40.928Z,70.92
2019-01-10T01:57:09.270Z,70.99
2019-01-10T01:59:36.852Z,71.02
2019-01-10T02:02:04.324Z,71.06
2019-01-10T02:04:31.572Z,71.14
2019-01-10T02:06:59.734Z,71.38
2019-01-10T02:09:27.879Z,71.11
2019-01-10T02:11:55.335Z,70.92
2019-01-10T02:14:23.060Z,71.15
2019-01-10T02:16:50.846Z,70.81
2019-01-10T02:19:21.446Z,71.57
2019-01-10T02:21:49.051Z,71.16
2019-01-10T02:24:16.332Z,71.31
2019-01-10T02:26:44.108Z,71.60
2019-01-10T02:29:11.396Z,71.74
2019-01-10T02:31:39.505Z,71.35
2019-01-10T02:34:07.252Z,71.55
2019-01-10T02:36:35.205Z,71.52
2019-01-10T02:39:04.301Z,71.47
2019-01-10T02:41:31.832Z,71.54
2019-01-10T02:44:26.951Z,71.18
2019-01-10T02:46:54.523Z,71.08
2019-01-10T02:49:22.355Z,71.37
2019-01-10T02:51:49.671Z,71.00
2019-01-10T02:54:17.149Z,71.38
2019-01-10T02:56:44.284Z,71.12
2019-01-10T02:59:11.626Z,71.24
2019-01-10T03:01:43.021Z,70.98
2019-01-10T03:04:11.604Z,70.76
2019-01-10T03:06:39.467Z,70.86
2019-01-10T03:09:09.000Z,71.20
2019-01-10T03:11:36.601Z,71.13
2019-01-10T03:14:04.650Z,70.99
2019-01-10T03:16:32.115Z,71.17
2019-01-10T03:18:59.690Z,71.03
2019-01-10T03:21:27.468Z,71.18
2019-01-10T03:23:55.051Z,71.18
2019-01-10T03:26:22.350Z,70.87
2019-01-10T03:28:50.250Z,71.13
2019-01-10T03:31:18.175Z,71.00
2019-01-10T03:33:45.557Z,70.95
2019-01-10T03:36:13.567Z,71.05
2019-01-10T03:38:41.330Z,71.07
2019-01-10T03:41:09.094Z,70.86
2019-01-10T03:43:46.490Z,70.98
2019-01-10T03:46:06.183Z,70.83
2019-01-10T03:48:33.407Z,70.77
2019-01-10T03:51:01.017Z,70.83
2019-01-10T03:53:29.595Z,70.91
2019-01-10T03:55:56.975Z,71.07
2019-01-10T03:58:24.717Z,70.79
2019-01-10T04:00:52.106Z,71.09
2019-01-10T04:03:19.888Z,71.10
2019-01-10T04:05:49.220Z,71.11
2019-01-10T04:08:16.836Z,71.16
2019-01-10T04:10:44.650Z,71.00
2019-01-10T04:13:12.055Z,71.07
2019-01-10T04:15:39.170Z,70.84
2019-01-10T04:18:06.607Z,70.76
2019-01-10T04:20:34.112Z,70.99
2019-01-10T04:23:02.242Z,70.93
2019-01-10T04:25:29.710Z,71.02
2019-01-10T04:27:58.114Z,71.12
2019-01-10T04:30:25.731Z,71.20
2019-01-10T04:32:53.144Z,71.23
2019-01-10T04:35:21.067Z,71.34
2019-01-10T04:37:48.657Z,71.14
2019-01-10T04:40:20.416Z,71.15
2019-01-10T04:42:47.931Z,70.86
2019-01-10T04:45:15.875Z,71.21
2019-01-10T04:47:46.552Z,71.02
2019-01-10T04:50:14.920Z,70.93
2019-01-10T04:52:42.475Z,71.31
2019-01-10T04:55:10.952Z,70.90
2019-01-10T04:57:38.946Z,71.31
2019-01-10T05:00:13.297Z,71.15
2019-01-10T05:02:40.548Z,71.41
2019-01-10T05:05:08.478Z,71.31
2019-01-10T05:07:36.227Z,71.14
2019-01-10T05:10:05.809Z,71.01
2019-01-10T05:12:33.376Z,71.14
2019-01-10T05:15:00.933Z,71.17
2019-01-10T05:17:30.128Z,71.25
2019-01-10T05:19:57.990Z,71.15
2019-01-10T05:22:25.214Z,71.38
2019-01-10T05:24:52.711Z,71.53
2019-01-10T05:27:20.224Z,71.38
2019-01-10T05:29:48.033Z,71.52
2019-01-10T05:32:15.791Z,71.57
2019-01-10T05:34:43.614Z,71.56
2019-01-10T05:37:11.245Z,71.53
2019-01-10T05:39:47.414Z,71.39
2019-01-10T05:42:08.654Z,71.85
2019-01-10T05:44:35.877Z,71.69
2019-01-10T05:47:03.676Z,71.67
2019-01-10T05:49:31.664Z,71.77
2019-01-10T05:52:00.323Z,71.80
2019-01-10T05:54:27.737Z,71.88
2019-01-10T05:56:55.387Z,71.80
2019-01-10T05:59:22.708Z,71.89
2019-01-10T06:01:50.512Z,71.75
2019-01-10T06:04:18.634Z,71.93
2019-01-10T06:06:46.978Z,71.86
2019-01-10T06:09:15.166Z,71.95
2019-01-10T06:11:43.115Z,71.63
2019-01-10T06:14:10.621Z,71.58
2019-01-10T06:16:38.587Z,71.93
2019-01-10T06:19:06.918Z,71.75
2019-01-10T06:21:34.811Z,71.35
2019-01-10T06:24:02.228Z,71.52
2019-01-10T06:26:29.889Z,71.54
2019-01-10T06:28:57.395Z,71.92
2019-01-10T06:31:24.692Z,71.67
2019-01-10T06:33:54.676Z,71.77
2019-01-10T06:36:21.959Z,71.62
2019-01-10T06:38:49.928Z,71.66
2019-01-10T06:41:17.615Z,71.71
2019-01-10T06:43:45.327Z,71.74
2019-01-10T06:46:13.251Z,71.72
2019-01-10T06:48:41.021Z,71.47
2019-01-10T06:51:08.850Z,71.60
2019-01-10T06:53:37.016Z,71.50
2019-01-10T06:56:05.045Z,71.28
2019-01-10T06:58:32.990Z,70.50
2019-01-10T07:01:00.939Z,70.28
2019-01-10T07:03:28.472Z,70.57
2019-01-10T07:05:56.529Z,70.41
2019-01-10T07:08:23.755Z,70.61
2019-01-10T07:10:51.319Z,70.29
2019-01-10T07:13:18.821Z,70.49
2019-01-10T07:15:47.721Z,70.55
2019-01-10T07:18:15.334Z,70.82
2019-01-10T07:20:42.782Z,71.17
2019-01-10T07:23:10.480Z,70.54
2019-01-10T07:25:38.426Z,70.78
2019-01-10T07:28:27.192Z,70.64
2019-01-10T07:30:56.976Z,70.47
2019-01-10T07:33:24.575Z,70.41
2019-01-10T07:35:56.862Z,70.64
2019-01-10T07:38:24.871Z,70.74
2019-01-10T07:40:52.343Z,70.78
2019-01-10T07:43:27.503Z,71.11
2019-01-10T07:45:55.479Z,70.79
2019-01-10T07:48:23.176Z,70.43
2019-01-10T07:50:51.370Z,70.44
2019-01-10T07:53:18.845Z,70.56
2019-01-10T07:55:46.346Z,70.56
2019-01-10T07:58:13.704Z,70.39
2019-01-10T08:00:41.755Z,70.11
2019-01-10T08:03:09.569Z,69.93
2019-01-10T08:05:37.126Z,70.31
2019-01-10T08:08:06.616Z,69.63
2019-01-10T08:10:34.395Z,69.75
2019-01-10T08:13:01.902Z,70.46
2019-01-10T08:15:29.267Z,69.96
2019-01-10T08:17:57.038Z,69.51
2019-01-10T08:20:24.911Z,69.38
2019-01-10T08:22:52.557Z,69.72
2019-01-10T08:25:20.042Z,68.77
2019-01-10T08:27:48.595Z,68.97
2019-01-10T08:30:20.529Z,69.17
2019-01-10T08:32:48.304Z,69.14
2019-01-10T08:35:18.920Z,68.44
2019-01-10T08:37:46.755Z,68.35
2019-01-10T08:40:16.544Z,67.94
2019-01-10T08:42:44.412Z,68.06
2019-01-10T08:45:21.085Z,67.67
2019-01-10T08:47:41.434Z,66.32
2019-01-10T08:50:14.039Z,66.67
2019-01-10T08:52:41.914Z,66.01
2019-01-10T08:55:09.386Z,66.47
2019-01-10T08:57:37.173Z,66.52
2019-01-10T09:00:09.748Z,66.43
2019-01-10T09:02:37.221Z,66.02
2019-01-10T09:05:05.311Z,66.45
2019-01-10T09:07:32.741Z,65.96
2019-01-10T09:10:00.498Z,65.93
2019-01-10T09:12:27.895Z,66.07
2019-01-10T09:14:55.260Z,65.65
2019-01-10T09:17:23.661Z,66.18
2019-01-10T09:19:51.100Z,65.49
2019-01-10T09:22:18.403Z,66.04
2019-01-10T09:24:45.551Z,66.13
2019-01-10T09:27:13.031Z,66.68
2019-01-10T09:29:41.456Z,66.07
2019-01-10T09:32:08.911Z,66.62
2019-01-10T09:34:36.185Z,65.50
2019-01-10T09:37:04.045Z,65.23
2019-01-10T09:39:31.684Z,64.93
2019-01-10T09:41:59.023Z,64.58
2019-01-10T09:44:26.866Z,64.00
2019-01-10T09:46:54.909Z,64.53
2019-01-10T09:49:22.825Z,65.11
2019-01-10T09:51:50.495Z,64.49
2019-01-10T09:54:18.298Z,64.14
2019-01-10T09:56:46.141Z,63.52
2019-01-10T09:59:13.632Z,64.96
2019-01-10T10:01:41.000Z,64.28
2019-01-10T10:04:08.252Z,65.08
2019-01-10T10:06:36.509Z,64.79
2019-01-10T10:09:06.921Z,64.32
2019-01-10T10:11:34.527Z,63.30
2019-01-10T10:14:01.910Z,63.55
2019-01-10T10:16:29.841Z,63.13
2019-01-10T10:18:58.165Z,63.35
2019-01-10T10:21:25.677Z,63.08
2019-01-10T10:23:54.492Z,62.93
2019-01-10T10:26:22.933Z,63.74
2019-01-10T10:28:50.337Z,63.50
2019-01-10T10:31:18.557Z,63.68
2019-01-10T10:33:45.945Z,63.38
2019-01-10T10:36:13.545Z,61.91
2019-01-10T10:38:41.146Z,63.01
2019-01-10T10:41:12.897Z,63.57
2019-01-10T10:43:41.770Z,62.32
2019-01-10T10:46:11.966Z,63.05
2019-01-10T10:48:39.346Z,62.75
2019-01-10T10:51:07.094Z,62.88
2019-01-10T10:53:37.710Z,61.66
2019-01-10T10:56:06.147Z,62.31
2019-01-10T10:58:33.783Z,61.23
2019-01-10T11:01:01.738Z,61.42
2019-01-10T11:03:29.494Z,62.29
2019-01-10T11:05:56.803Z,62.40
2019-01-10T11:08:24.764Z,61.60
2019-01-10T11:10:52.230Z,60.80
2019-01-10T11:13:19.727Z,61.97
2019-01-10T11:15:47.690Z,61.34
2019-01-10T11:18:15.289Z,60.74
2019-01-10T11:20:43.025Z,61.07
2019-01-10T11:23:11.092Z,60.56
2019-01-10T11:25:38.513Z,61.34
2019-01-10T11:28:06.786Z,61.54
2019-01-10T11:30:34.414Z,60.39
2019-01-10T11:33:01.923Z,57.69
2019-01-10T11:35:30.124Z,58.66
2019-01-10T11:37:57.456Z,59.71
2019-01-10T11:40:25.349Z,57.68
2019-01-10T11:42:53.882Z,58.24
2019-01-10T11:45:24.955Z,59.31
2019-01-10T11:47:52.668Z,57.91
2019-01-10T11:50:20.621Z,58.26
2019-01-10T11:52:47.819Z,58.49
2019-01-10T11:55:15.836Z,57.62
2019-01-10T11:57:44.051Z,58.58
2019-01-10T12:00:37.710Z,59.40
2019-01-10T12:03:07.379Z,58.29
2019-01-10T12:05:47.324Z,60.37
2019-01-10T12:08:08.222Z,59.05
2019-01-10T12:10:35.623Z,61.04
2019-01-10T12:13:03.276Z,59.11
2019-01-10T12:15:31.148Z,59.23
2019-01-10T12:17:58.739Z,60.11
2019-01-10T12:20:26.362Z,59.35
2019-01-10T12:22:53.780Z,59.94
2019-01-10T12:25:21.516Z,59.16
2019-01-10T12:27:49.395Z,59.52
2019-01-10T12:30:23.239Z,57.93
2019-01-10T12:32:57.667Z,58.12
2019-01-10T12:35:25.503Z,58.08
2019-01-10T12:37:53.315Z,60.57
2019-01-10T12:40:21.211Z,58.87
2019-01-10T12:42:49.931Z,58.31
2019-01-10T12:45:18.882Z,58.06
2019-01-10T12:47:46.432Z,57.87
2019-01-10T12:50:20.427Z,58.34
2019-01-10T12:52:48.572Z,60.12
2019-01-10T12:55:16.917Z,58.48
2019-01-10T12:57:44.359Z,57.95
2019-01-10T13:00:15.038Z,59.42
2019-01-10T13:02:42.641Z,60.33
2019-01-10T13:05:10.462Z,60.01
2019-01-10T13:07:37.831Z,59.52
2019-01-10T13:10:09.024Z,59.17
2019-01-10T13:12:36.457Z,60.79
2019-01-10T13:15:06.813Z,59.15
2019-01-10T13:17:34.816Z,58.99
2019-01-10T13:20:03.264Z,60.10
2019-01-10T13:22:30.960Z,60.59
2019-01-10T13:24:58.457Z,60.51
2019-01-10T13:27:26.520Z,61.45
2019-01-10T13:29:53.806Z,60.93
2019-01-10T13:32:21.697Z,59.78
2019-01-10T13:34:49.741Z,59.48
2019-01-10T13:37:17.673Z,61.36
2019-01-10T13:39:45.073Z,61.73
2019-01-10T13:42:12.418Z,59.08
2019-01-10T13:44:40.066Z,60.58
2019-01-10T13:47:07.734Z,60.55
2019-01-10T13:49:35.412Z,60.27
2019-01-10T13:52:02.886Z,59.68
2019-01-10T13:54:30.510Z,59.36
2019-01-10T13:56:58.292Z,60.66
2019-01-10T13:59:25.636Z,60.69
2019-01-10T14:01:53.395Z,60.57
2019-01-10T14:04:20.976Z,61.54
2019-01-10T14:06:48.587Z,60.37
2019-01-10T14:09:16.064Z,60.25
2019-01-10T14:11:43.724Z,61.04
2019-01-10T14:14:11.102Z,60.68
2019-01-10T14:16:38.590Z,59.98
2019-01-10T14:19:05.962Z,58.54
2019-01-10T14:21:33.696Z,58.25
2019-01-10T14:24:01.338Z,57.08
2019-01-10T14:26:28.994Z,56.91
2019-01-10T14:29:00.331Z,57.03
2019-01-10T14:31:27.776Z,57.44
2019-01-10T14:33:55.437Z,57.84
2019-01-10T14:36:22.914Z,59.98
2019-01-10T14:38:50.393Z,56.71
2019-01-10T14:41:17.733Z,56.92
2019-01-10T14:43:45.226Z,57.31
2019-01-10T14:46:13.197Z,57.23
2019-01-10T14:48:40.386Z,59.34
2019-01-10T14:51:07.868Z,58.64
2019-01-10T14:53:35.210Z,58.70
2019-01-10T14:56:03.016Z,57.69
2019-01-10T14:58:30.252Z,60.01
2019-01-10T15:00:57.883Z,60.70
2019-01-10T15:03:26.095Z,58.54
2019-01-10T15:05:53.337Z,58.57
2019-01-10T15:08:21.102Z,57.67
2019-01-10T15:10:49.028Z,58.35
2019-01-10T15:13:16.797Z,57.84
2019-01-10T15:15:44.626Z,58.06
2019-01-10T15:18:12.643Z,58.80
2019-01-10T15:20:40.399Z,56.42
2019-01-10T15:23:08.327Z,59.50
2019-01-10T15:25:36.721Z,59.17
2019-01-10T15:28:04.286Z,59.40
2019-01-10T15:30:31.860Z,60.57
2019-01-10T15:32:59.167Z,60.36
2019-01-10T15:35:27.514Z,60.92
2019-01-10T15:37:54.986Z,59.08
2019-01-10T15:40:26.115Z,59.07
2019-01-10T15:42:53.787Z,59.36
2019-01-10T15:45:21.236Z,61.28
2019-01-10T15:47:48.838Z,60.89
2019-01-10T15:50:17.889Z,60.57
2019-01-10T15:52:45.974Z,61.77
2019-01-10T15:55:15.201Z,61.34
2019-01-10T15:57:42.851Z,61.18
2019-01-10T16:00:15.176Z,60.13
2019-01-10T16:02:42.938Z,61.13
2019-01-10T16:05:10.510Z,61.63
2019-01-10T16:07:38.398Z,61.60
2019-01-10T16:10:07.688Z,61.94
2019-01-10T16:12:35.083Z,61.78
2019-01-10T16:15:05.022Z,62.56
2019-01-10T16:17:33.101Z,62.27
2019-01-10T16:20:01.259Z,62.18
2019-01-10T16:22:28.729Z,61.59
2019-01-10T16:24:56.590Z,62.81
2019-01-10T16:27:24.072Z,63.25
2019-01-10T16:29:52.034Z,62.71
2019-01-10T16:32:19.558Z,62.51
2019-01-10T16:34:47.591Z,60.80
2019-01-10T16:37:15.327Z,60.36
2019-01-10T16:39:42.986Z,60.39
2019-01-10T16:42:10.999Z,60.40
2019-01-10T16:44:39.147Z,61.43
2019-01-10T16:47:06.795Z,60.06
2019-01-10T16:49:34.431Z,61.43
2019-01-10T16:52:01.919Z,60.89
2019-01-10T16:54:29.570Z,62.40
2019-01-10T16:56:57.606Z,62.63
2019-01-10T16:59:25.812Z,61.86
2019-01-10T17:01:53.941Z,62.16
2019-01-10T17:04:23.076Z,61.78
2019-01-10T17:06:51.492Z,61.71
2019-01-10T17:09:19.253Z,61.80
2019-01-10T17:11:46.930Z,60.58
2019-01-10T17:14:14.683Z,60.96
2019-01-10T17:16:43.492Z,61.16
2019-01-10T17:19:11.051Z,61.50
2019-01-10T17:21:38.158Z,61.99
2019-01-10T17:24:05.569Z,60.97
2019-01-10T17:26:33.243Z,61.89
2019-01-10T17:29:00.496Z,61.12
2019-01-10T17:31:29.539Z,62.78
2019-01-10T17:33:57.424Z,62.57
2019-01-10T17:36:24.675Z,62.25
2019-01-10T17:38:52.373Z,62.07
2019-01-10T17:41:20.114Z,61.99
2019-01-10T17:43:48.249Z,63.01
2019-01-10T17:46:16.138Z,63.17
2019-01-10T17:48:44.166Z,63.45
2019-01-10T17:51:11.751Z,62.52
2019-01-10T17:53:39.184Z,62.98
2019-01-10T17:56:06.894Z,64.06
2019-01-10T17:58:34.215Z,63.32
2019-01-10T18:01:02.033Z,64.00
2019-01-10T18:03:29.882Z,64.03
2019-01-10T18:05:57.318Z,64.67
2019-01-10T18:08:25.257Z,65.09
2019-01-10T18:10:53.303Z,65.09
2019-01-10T18:13:20.766Z,65.37
2019-01-10T18:15:48.942Z,65.48
2019-01-10T18:18:16.971Z,65.67
2019-01-10T18:20:45.071Z,66.25
2019-01-10T18:23:13.077Z,66.02
2019-01-10T18:25:40.695Z,66.24
2019-01-10T18:28:08.686Z,66.46
2019-01-10T18:30:36.531Z,66.65
2019-01-10T18:33:04.463Z,66.78
2019-01-10T18:35:32.864Z,67.17
2019-01-10T18:38:00.380Z,67.37
2019-01-10T18:40:27.889Z,67.59
2019-01-10T18:42:55.785Z,67.81
2019-01-10T18:45:29.938Z,67.80
2019-01-10T18:47:58.067Z,68.23
2019-01-10T18:50:25.788Z,68.68
2019-01-10T18:52:53.455Z,69.02
2019-01-10T18:55:21.018Z,69.45
2019-01-10T18:57:48.838Z,69.77
2019-01-10T19:00:27.941Z,69.94
2019-01-10T19:02:57.362Z,69.92
2019-01-10T19:05:26.142Z,69.93
2019-01-10T19:07:53.869Z,70.42
2019-01-10T19:10:21.647Z,70.03
2019-01-10T19:12:49.950Z,70.07
2019-01-10T19:15:17.442Z,69.88
2019-01-10T19:17:45.296Z,70.45
2019-01-10T19:20:16.642Z,70.27
2019-01-10T19:22:44.225Z,70.36
2019-01-10T19:25:12.259Z,70.22
2019-01-10T19:27:39.848Z,70.65
2019-01-10T19:30:18.297Z,70.46
2019-01-10T19:32:46.038Z,70.49
2019-01-10T19:35:13.546Z,70.47
2019-01-10T19:37:41.610Z,70.56
2019-01-10T19:40:13.827Z,70.68
2019-01-10T19:42:41.430Z,70.72
2019-01-10T19:45:11.169Z,71.00
2019-01-10T19:47:38.913Z,71.06
2019-01-10T19:50:09.758Z,70.99
2019-01-10T19:52:37.230Z,71.12
2019-01-10T19:55:06.548Z,71.42
2019-01-10T19:57:34.436Z,71.51
2019-01-10T20:00:03.815Z,71.39
2019-01-10T20:02:31.823Z,71.57
2019-01-10T20:05:00.221Z,71.38
2019-01-10T20:07:27.520Z,71.56
2019-01-10T20:09:55.617Z,71.42
2019-01-10T20:12:23.220Z,71.68
2019-01-10T20:14:50.626Z,71.51
2019-01-10T20:17:17.786Z,71.77
2019-01-10T20:19:45.323Z,71.50
2019-01-10T20:22:13.059Z,71.17
2019-01-10T20:24:40.776Z,71.40
2019-01-10T20:27:10.287Z,71.36
2019-01-10T20:29:38.534Z,71.18
2019-01-10T20:32:06.314Z,71.14
2019-01-10T20:34:34.401Z,71.65
2019-01-10T20:37:02.190Z,71.82
2019-01-10T20:39:30.393Z,72.03
2019-01-10T20:42:01.867Z,72.54
2019-01-10T20:44:27.228Z,72.53
2019-01-10T20:46:54.934Z,72.66
2019-01-10T20:49:22.676Z,72.61
2019-01-10T20:51:50.513Z,72.48
2019-01-10T20:54:18.031Z,72.33
2019-01-10T20:56:45.458Z,72.76
2019-01-10T20:59:12.962Z,72.74
2019-01-10T21:01:42.926Z,72.75
2019-01-10T21:04:15.489Z,72.90
2019-01-10T21:06:47.604Z,73.00
2019-01-10T21:09:21.146Z,72.99
2019-01-10T21:11:53.100Z,72.74
2019-01-10T21:14:24.703Z,72.78
2019-01-10T21:16:59.404Z,72.65
2019-01-10T21:19:28.467Z,72.68
2019-01-10T21:21:56.595Z,73.05
2019-01-10T21:24:28.045Z,73.15
2019-01-10T21:27:00.599Z,73.03
2019-01-10T21:29:31.192Z,73.22
2019-01-10T21:32:01.924Z,73.19
2019-01-10T21:34:30.775Z,73.10
2019-01-10T21:37:00.550Z,73.30
2019-01-10T21:39:27.654Z,73.53
2019-01-10T21:41:55.379Z,73.50
2019-01-10T21:44:22.500Z,73.43
2019-01-10T21:46:49.790Z,73.36
2019-01-10T21:49:18.019Z,73.59
2019-01-10T21:51:45.792Z,73.52
2019-01-10T21:54:13.470Z,73.32
2019-01-10T21:56:40.881Z,72.91
2019-01-10T21:59:07.998Z,73.22
2019-01-10T22:01:35.730Z,73.02
2019-01-10T22:04:03.920Z,73.47
2019-01-10T22:06:31.400Z,73.34
2019-01-10T22:08:59.001Z,73.45
2019-01-10T22:11:29.528Z,73.46
2019-01-10T22:13:57.127Z,73.19
2019-01-10T22:16:26.360Z,73.15
2019-01-10T22:18:53.901Z,73.09
2019-01-10T22:21:21.287Z,73.14
2019-01-10T22:23:49.422Z,73.33
2019-01-10T22:26:17.358Z,73.10
2019-01-10T22:28:45.435Z,72.86
2019-01-10T22:31:13.331Z,73.07
2019-01-10T22:33:40.894Z,72.74
2019-01-10T22:36:08.298Z,72.63
2019-01-10T22:38:36.162Z,73.21
2019-01-10T22:41:04.405Z,73.03
2019-01-10T22:43:31.712Z,73.32
2019-01-10T22:45:58.953Z,72.71
2019-01-10T22:48:26.245Z,72.84
2019-01-10T22:50:53.837Z,72.78
2019-01-10T22:53:22.040Z,72.91
2019-01-10T22:55:49.333Z,72.29
2019-01-10T22:58:17.049Z,72.13
2019-01-10T23:01:44.636Z,71.71
2019-01-10T23:04:16.039Z,72.23
2019-01-10T23:06:43.298Z,71.98
2019-01-10T23:09:10.825Z,71.75
2019-01-10T23:11:38.529Z,72.59
2019-01-10T23:14:06.837Z,72.63
2019-01-10T23:16:35.619Z,72.69
2019-01-10T23:19:04.923Z,72.77
2019-01-10T23:21:37.990Z,72.48
2019-01-10T23:24:11.493Z,72.20
2019-01-10T23:26:41.476Z,72.60
2019-01-10T23:29:09.701Z,71.77
2019-01-10T23:31:37.434Z,71.77
2019-01-10T23:34:08.586Z,71.16
2019-01-10T23:36:39.743Z,70.88
2019-01-10T23:39:21.978Z,69.49
2019-01-10T23:41:56.299Z,69.80
2019-01-10T23:44:23.838Z,69.52
2019-01-10T23:46:51.515Z,69.54
2019-01-10T23:49:19.738Z,69.72
2019-01-10T23:51:47.579Z,69.87
2019-01-10T23:54:15.060Z,69.66
2019-01-10T23:56:42.463Z,71.34
2019-01-10T23:59:09.833Z,71.71
